Terminal Aerodrome Forecast
Issued by NWS St Louis, MO

Home | Current Version | Previous Version | Graphics & Text | Print | Product List | Glossary On
Versions: 1 2 3 4 5 6 7 8 9 10 11 12 13 14
000
FTUS43 KLSX 290242 AAA
TAFCOU
TAF AMD
KCOU 290242Z 2903/2924 14010KT P6SM VCSH BKN150
     FM290700 17006KT P6SM VCTS SCT050CB BKN120
     FM291500 18008KT P6SM OVC080=

USA.gov is the U.S. government's official web portal to all federal, state and local government web resources and services.